createdAt,value
2023-04-15T00:01:19.815Z,6.90
2023-04-15T00:03:48.981Z,7.40
2023-04-15T00:06:18.012Z,6.60
2023-04-15T00:08:47.775Z,7.50
2023-04-15T00:11:18.479Z,6.80
2023-04-15T00:13:47.197Z,7.10
2023-04-15T00:16:15.959Z,7.00
2023-04-15T00:18:44.635Z,7.00
2023-04-15T00:21:13.375Z,7.00
2023-04-15T00:23:42.060Z,7.80
2023-04-15T00:26:10.787Z,6.50
2023-04-15T00:28:39.516Z,6.60
2023-04-15T00:31:08.258Z,6.80
2023-04-15T00:33:37.067Z,6.60
2023-04-15T00:36:08.766Z,6.80
2023-04-15T00:38:39.472Z,6.70
2023-04-15T00:41:09.281Z,6.70
2023-04-15T00:43:38.419Z,6.50
2023-04-15T00:46:07.805Z,6.40
2023-04-15T00:48:37.424Z,7.10
2023-04-15T00:51:07.350Z,6.00
2023-04-15T00:53:36.119Z,6.80
2023-04-15T00:56:05.591Z,7.20
2023-04-15T00:58:34.700Z,6.80
2023-04-15T01:01:04.618Z,6.60
2023-04-15T01:03:33.521Z,7.10
2023-04-15T01:06:04.145Z,7.80
2023-04-15T01:08:33.163Z,7.40
2023-04-15T01:11:03.844Z,6.70
2023-04-15T01:13:34.680Z,7.00
2023-04-15T01:16:03.552Z,7.70
2023-04-15T01:18:32.935Z,8.50
2023-04-15T01:21:04.969Z,8.00
2023-04-15T01:23:40.285Z,7.80
2023-04-15T01:26:12.242Z,8.30
2023-04-15T01:28:41.165Z,8.20
2023-04-15T01:31:13.833Z,8.40
2023-04-15T01:33:43.820Z,9.30
2023-04-15T01:36:12.466Z,9.90
2023-04-15T01:38:41.419Z,9.10
2023-04-15T01:41:10.145Z,9.00
2023-04-15T01:43:38.866Z,9.00
2023-04-15T01:46:07.578Z,10.00
2023-04-15T01:48:36.277Z,9.40
2023-04-15T01:51:05.863Z,10.00
2023-04-15T01:53:34.698Z,9.60
2023-04-15T01:56:04.523Z,9.30
2023-04-15T01:58:33.469Z,9.90
2023-04-15T02:01:03.241Z,9.60
2023-04-15T02:03:34.249Z,9.80
2023-04-15T02:06:03.021Z,9.50
2023-04-15T02:08:31.851Z,10.00
2023-04-15T02:11:01.400Z,9.70
2023-04-15T02:13:31.059Z,10.30
2023-04-15T02:16:04.060Z,10.60
2023-04-15T02:18:32.897Z,9.60
2023-04-15T02:21:01.744Z,10.10
2023-04-15T02:23:30.482Z,10.20
2023-04-15T02:26:00.132Z,10.10
2023-04-15T02:28:28.848Z,10.20
2023-04-15T02:30:59.388Z,10.40
2023-04-15T02:33:28.237Z,10.70
2023-04-15T02:35:56.901Z,10.90
2023-04-15T02:38:25.789Z,10.30
2023-04-15T02:40:54.791Z,11.30
2023-04-15T02:43:23.973Z,11.10
2023-04-15T02:45:53.434Z,11.10
2023-04-15T02:48:22.364Z,11.30
2023-04-15T02:50:51.956Z,11.00
2023-04-15T02:53:21.168Z,12.50
2023-04-15T02:55:49.788Z,11.60
2023-04-15T02:58:18.500Z,11.70
2023-04-15T03:00:47.197Z,12.40
2023-04-15T03:03:16.150Z,11.40
2023-04-15T03:05:45.147Z,11.40
2023-04-15T03:08:15.134Z,10.90
2023-04-15T03:10:43.803Z,11.80
2023-04-15T03:13:12.528Z,11.80
2023-04-15T03:15:42.355Z,11.00
2023-04-15T03:18:11.638Z,11.10
2023-04-15T03:20:42.245Z,11.20
2023-04-15T03:23:11.299Z,10.90
2023-04-15T03:25:40.837Z,15.50
2023-04-15T03:28:10.413Z,12.20
2023-04-15T03:30:39.176Z,11.10
2023-04-15T03:33:08.753Z,11.90
2023-04-15T03:35:38.416Z,12.70
2023-04-15T03:38:07.290Z,12.50
2023-04-15T03:40:36.056Z,11.70
2023-04-15T03:43:04.790Z,11.50
2023-04-15T03:45:33.844Z,11.80
2023-04-15T03:50:34.105Z,12.00
2023-04-15T03:53:02.838Z,11.20
2023-04-15T03:55:31.859Z,11.90
2023-04-15T03:58:00.523Z,12.10
2023-04-15T04:00:29.290Z,12.20
2023-04-15T04:02:58.204Z,12.40
2023-04-15T04:05:26.984Z,13.40
2023-04-15T04:07:55.711Z,11.30
2023-04-15T04:10:24.441Z,13.00
2023-04-15T04:12:53.122Z,12.70
2023-04-15T04:15:21.862Z,12.20
2023-04-15T04:17:51.073Z,12.60
2023-04-15T04:20:19.811Z,12.60
2023-04-15T04:22:48.578Z,12.70
2023-04-15T04:25:17.788Z,13.70
2023-04-15T04:27:46.591Z,13.70
2023-04-15T04:30:15.257Z,13.60
2023-04-15T04:32:43.999Z,12.50
2023-04-15T04:35:12.949Z,12.80
2023-04-15T04:37:41.640Z,12.50
2023-04-15T04:40:11.056Z,12.30
2023-04-15T04:42:40.156Z,13.20
2023-04-15T04:45:09.666Z,12.10
2023-04-15T04:47:38.402Z,13.10
2023-04-15T04:50:09.298Z,12.60
2023-04-15T04:52:38.584Z,12.80
2023-04-15T04:55:08.790Z,12.20
2023-04-15T04:57:39.643Z,13.30
2023-04-15T05:00:09.285Z,13.30
2023-04-15T05:02:38.248Z,12.80
2023-04-15T05:05:08.084Z,12.90
2023-04-15T05:07:36.942Z,12.30
2023-04-15T05:10:06.831Z,13.20
2023-04-15T05:12:37.697Z,13.00
2023-04-15T05:15:07.643Z,12.60
2023-04-15T05:17:36.498Z,13.00
2023-04-15T05:20:05.885Z,13.50
2023-04-15T05:22:34.673Z,13.50
2023-04-15T05:25:03.634Z,13.70
2023-04-15T05:27:32.450Z,14.20
2023-04-15T05:30:01.353Z,13.50
2023-04-15T05:32:30.091Z,14.00
2023-04-15T05:34:58.925Z,12.90
2023-04-15T05:37:27.617Z,13.90
2023-04-15T05:39:56.958Z,14.90
2023-04-15T05:42:25.835Z,14.70
2023-04-15T05:44:54.516Z,14.50
2023-04-15T05:47:23.394Z,14.90
2023-04-15T05:49:52.500Z,16.10
2023-04-15T05:52:21.488Z,15.80
2023-04-15T05:54:50.196Z,14.10
2023-04-15T05:57:18.901Z,15.30
2023-04-15T05:59:47.805Z,17.30
2023-04-15T06:02:16.603Z,16.70
2023-04-15T06:04:45.642Z,16.40
2023-04-15T06:07:14.546Z,16.90
2023-04-15T06:09:43.256Z,16.90
2023-04-15T06:12:13.360Z,15.60
2023-04-15T06:14:42.150Z,17.60
2023-04-15T06:17:11.019Z,16.30
2023-04-15T06:19:39.856Z,16.70
2023-04-15T06:22:09.398Z,18.10
2023-04-15T06:24:38.134Z,17.50
2023-04-15T06:27:06.787Z,18.00
2023-04-15T06:29:35.800Z,18.30
2023-04-15T06:32:04.520Z,18.20
2023-04-15T06:34:33.334Z,18.70
2023-04-15T06:37:02.973Z,18.20
2023-04-15T06:39:33.767Z,18.20
2023-04-15T06:42:03.609Z,18.40
2023-04-15T06:44:33.788Z,18.30
2023-04-15T06:47:03.002Z,19.30
2023-04-15T06:49:32.058Z,18.60
2023-04-15T06:52:01.842Z,19.70
2023-04-15T06:54:30.590Z,19.00
2023-04-15T06:56:59.255Z,32.90
2023-04-15T06:59:27.918Z,20.40
2023-04-15T07:01:56.885Z,20.80
2023-04-15T07:04:26.161Z,21.10
2023-04-15T07:06:55.823Z,20.50
2023-04-15T07:09:24.970Z,20.20
2023-04-15T07:11:53.730Z,18.10
2023-04-15T07:14:22.879Z,19.30
2023-04-15T07:16:51.803Z,18.40
2023-04-15T07:19:20.608Z,19.70
2023-04-15T07:21:49.876Z,19.50
2023-04-15T07:24:20.284Z,20.70
2023-04-15T07:26:49.530Z,20.10
2023-04-15T07:29:18.658Z,18.70
2023-04-15T07:31:47.539Z,18.20
2023-04-15T07:34:16.892Z,17.60
2023-04-15T07:36:46.212Z,18.40
2023-04-15T07:39:15.002Z,17.10
2023-04-15T07:41:43.944Z,26.70
2023-04-15T07:44:12.825Z,18.80
2023-04-15T07:46:41.661Z,18.50
2023-04-15T07:49:10.386Z,17.40
2023-04-15T07:51:39.227Z,17.70
2023-04-15T07:54:07.966Z,21.10
2023-04-15T07:56:36.792Z,20.30
2023-04-15T07:59:06.731Z,19.30
2023-04-15T08:01:35.959Z,19.70
2023-04-15T08:04:07.569Z,21.10
2023-04-15T08:06:40.157Z,21.80
2023-04-15T08:09:09.283Z,20.50
2023-04-15T08:11:38.389Z,22.30
2023-04-15T08:14:07.163Z,21.60
2023-04-15T08:16:36.336Z,20.30
2023-04-15T08:19:05.767Z,22.10
2023-04-15T08:21:34.841Z,20.30
2023-04-15T08:24:03.948Z,21.10
2023-04-15T08:26:32.994Z,21.40
2023-04-15T08:29:02.018Z,19.70
2023-04-15T08:31:31.242Z,23.00
2023-04-15T08:34:04.594Z,22.10
2023-04-15T08:36:34.218Z,21.80
2023-04-15T08:39:05.131Z,20.10
2023-04-15T08:42:02.768Z,23.50
2023-04-15T08:44:37.036Z,23.20
2023-04-15T08:47:09.422Z,21.10
2023-04-15T08:49:41.528Z,20.40
2023-04-15T08:52:10.649Z,20.40
2023-04-15T08:54:40.243Z,20.50
2023-04-15T08:57:09.572Z,21.80
2023-04-15T08:59:38.662Z,22.10
2023-04-15T09:02:10.098Z,22.40
2023-04-15T09:04:42.790Z,22.10
2023-04-15T09:07:12.583Z,23.00
2023-04-15T09:09:50.591Z,22.60
2023-04-15T09:12:26.707Z,21.50
2023-04-15T09:14:58.887Z,20.70
2023-04-15T09:17:28.084Z,22.80
2023-04-15T09:20:16.901Z,21.10
2023-04-15T09:22:49.070Z,20.90
2023-04-15T09:25:31.089Z,21.50
2023-04-15T09:28:02.965Z,22.80
2023-04-15T09:30:32.032Z,22.70
2023-04-15T09:33:05.127Z,22.80
2023-04-15T09:35:35.786Z,23.20
2023-04-15T09:38:10.189Z,23.10
2023-04-15T09:40:43.452Z,22.00
2023-04-15T09:43:17.985Z,22.10
2023-04-15T09:45:54.087Z,21.70
2023-04-15T09:48:27.447Z,25.00
2023-04-15T09:51:00.717Z,20.30
2023-04-15T09:53:31.854Z,20.90
2023-04-15T09:56:02.906Z,19.80
2023-04-15T09:58:35.899Z,21.10
2023-04-15T10:01:06.537Z,24.60
2023-04-15T10:03:37.801Z,20.80
2023-04-15T10:06:07.292Z,22.30
2023-04-15T10:08:35.979Z,21.80
2023-04-15T10:11:07.181Z,21.40
2023-04-15T10:13:39.149Z,21.80
2023-04-15T10:16:15.434Z,22.20
2023-04-15T10:18:47.232Z,21.40
2023-04-15T10:21:18.901Z,20.50
2023-04-15T10:23:48.475Z,23.40
2023-04-15T10:26:17.926Z,22.10
2023-04-15T10:28:48.482Z,21.80
2023-04-15T10:31:18.628Z,19.80
2023-04-15T10:33:48.928Z,20.10
2023-04-15T10:36:20.063Z,20.10
2023-04-15T10:38:48.772Z,20.90
2023-04-15T10:41:31.446Z,21.20
2023-04-15T10:44:01.402Z,21.70
2023-04-15T10:46:40.263Z,21.60
2023-04-15T10:49:24.648Z,21.90
2023-04-15T10:51:59.313Z,21.40
2023-04-15T10:54:28.106Z,21.20
2023-04-15T10:57:08.801Z,21.60
2023-04-15T11:00:01.300Z,21.30
2023-04-15T11:02:57.682Z,22.10
2023-04-15T11:05:41.762Z,21.20
2023-04-15T11:08:14.010Z,22.30
2023-04-15T11:10:42.631Z,21.80
2023-04-15T11:13:11.297Z,20.30
2023-04-15T11:15:42.087Z,20.70
2023-04-15T11:18:15.102Z,21.70
2023-04-15T11:23:32.311Z,20.90
2023-04-15T11:26:05.738Z,21.10
2023-04-15T11:28:34.805Z,20.00
2023-04-15T11:31:10.861Z,20.70
2023-04-15T11:33:57.190Z,20.90
2023-04-15T11:36:35.038Z,20.30
2023-04-15T11:39:07.772Z,21.20
2023-04-15T11:41:36.658Z,21.30
2023-04-15T11:44:18.176Z,20.30
2023-04-15T11:46:46.957Z,19.80
2023-04-15T11:49:31.497Z,18.10
2023-04-15T11:52:01.353Z,19.70
2023-04-15T11:54:30.486Z,18.30
2023-04-15T11:57:00.405Z,18.60
2023-04-15T11:59:45.796Z,17.70
2023-04-15T12:02:14.996Z,16.80
2023-04-15T12:04:44.215Z,16.40
2023-04-15T12:07:13.133Z,16.40
2023-04-15T12:09:42.708Z,15.80
2023-04-15T12:12:12.661Z,15.10
2023-04-15T12:14:42.472Z,15.60
2023-04-15T12:17:11.709Z,15.90
2023-04-15T12:19:43.390Z,15.90
2023-04-15T12:22:15.910Z,14.40
2023-04-15T12:27:17.987Z,14.60
2023-04-15T12:29:46.791Z,14.20
2023-04-15T12:32:23.004Z,14.90
2023-04-15T12:34:53.480Z,13.90
2023-04-15T12:37:22.426Z,14.40
2023-04-15T12:39:52.537Z,12.50
2023-04-15T12:42:22.783Z,13.30
2023-04-15T12:44:51.545Z,12.70
2023-04-15T12:47:20.431Z,13.90
2023-04-15T12:49:49.835Z,13.10
2023-04-15T12:52:18.709Z,12.40
2023-04-15T12:54:47.393Z,12.10
2023-04-15T12:57:16.336Z,11.40
2023-04-15T12:59:45.787Z,12.70
2023-04-15T13:02:14.625Z,11.60
2023-04-15T13:04:43.666Z,11.60
2023-04-15T13:10:39.465Z,10.10
2023-04-15T13:13:08.982Z,9.90
2023-04-15T13:15:38.533Z,8.90
2023-04-15T13:18:07.986Z,9.20
2023-04-15T13:20:36.877Z,9.80
2023-04-15T13:23:05.789Z,9.00
2023-04-15T13:25:34.695Z,7.00
2023-04-15T13:28:03.760Z,7.10
2023-04-15T13:30:32.600Z,7.10
2023-04-15T13:33:01.556Z,8.20
2023-04-15T13:35:30.594Z,6.30
2023-04-15T13:37:59.526Z,5.90
2023-04-15T13:40:28.757Z,5.90
2023-04-15T13:42:58.952Z,6.10
2023-04-15T13:45:27.771Z,5.90
2023-04-15T13:48:00.287Z,5.80
2023-04-15T13:50:29.691Z,5.80
2023-04-15T13:52:58.547Z,5.50
2023-04-15T13:55:28.501Z,5.10
2023-04-15T13:57:58.052Z,5.60
2023-04-15T14:00:27.168Z,5.60
2023-04-15T14:02:56.030Z,5.90
2023-04-15T14:05:25.222Z,5.10
2023-04-15T14:07:54.282Z,4.90
2023-04-15T14:10:23.102Z,4.10
2023-04-15T14:12:51.999Z,5.40
2023-04-15T14:15:21.605Z,5.40
2023-04-15T14:17:50.437Z,5.50
2023-04-15T14:20:19.293Z,5.00
2023-04-15T14:22:48.182Z,5.40
2023-04-15T14:25:30.461Z,5.10
2023-04-15T14:28:03.687Z,4.70
2023-04-15T14:30:32.561Z,4.70
2023-04-15T14:33:02.076Z,5.00
2023-04-15T14:35:31.354Z,3.60
2023-04-15T14:38:00.178Z,4.20
2023-04-15T14:40:28.904Z,3.00
2023-04-15T14:42:57.633Z,3.30
2023-04-15T14:45:26.381Z,3.30
2023-04-15T14:47:55.200Z,3.10
2023-04-15T14:50:24.076Z,3.50
2023-04-15T14:52:52.821Z,2.90
2023-04-15T14:55:21.616Z,3.50
2023-04-15T14:57:50.418Z,3.70
2023-04-15T15:00:19.343Z,3.20
2023-04-15T15:02:48.291Z,2.80
2023-04-15T15:05:17.191Z,2.30
2023-04-15T15:07:46.124Z,2.70
2023-04-15T15:10:14.943Z,2.60
2023-04-15T15:12:43.708Z,3.00
2023-04-15T15:15:25.110Z,2.70
2023-04-15T15:17:57.357Z,3.20
2023-04-15T15:20:26.928Z,2.60
2023-04-15T15:22:56.856Z,2.50
2023-04-15T15:25:26.247Z,2.30
2023-04-15T15:27:55.074Z,2.80
2023-04-15T15:30:23.881Z,2.30
2023-04-15T15:32:52.657Z,2.30
2023-04-15T15:35:23.139Z,2.00
2023-04-15T15:37:52.641Z,2.50
2023-04-15T15:40:21.717Z,2.40
2023-04-15T15:42:51.095Z,2.60
2023-04-15T15:45:19.852Z,2.00
2023-04-15T15:47:48.840Z,2.00
2023-04-15T15:50:17.633Z,2.10
2023-04-15T15:52:46.289Z,2.20
2023-04-15T15:55:15.079Z,2.40
2023-04-15T15:57:43.848Z,2.30
2023-04-15T16:00:13.431Z,2.10
2023-04-15T16:05:14.443Z,1.80
2023-04-15T16:07:43.283Z,2.20
2023-04-15T16:10:14.296Z,2.00
2023-04-15T16:12:44.936Z,2.80
2023-04-15T16:15:14.082Z,2.00
2023-04-15T16:17:43.333Z,1.90
2023-04-15T16:20:12.099Z,1.70
2023-04-15T16:22:40.898Z,2.10
2023-04-15T16:25:10.719Z,2.10
2023-04-15T16:30:12.761Z,2.00
2023-04-15T16:32:41.716Z,2.50
2023-04-15T16:35:11.768Z,2.00
2023-04-15T16:37:40.513Z,2.10
